createdAt,value
2023-03-17T00:00:42.776Z,36.42
2023-03-17T00:03:25.620Z,37.45
2023-03-17T00:05:54.917Z,31.77
2023-03-17T00:08:25.853Z,26.90
2023-03-17T00:10:53.627Z,33.58
2023-03-17T00:13:21.000Z,33.72
2023-03-17T00:15:55.788Z,36.75
2023-03-17T00:18:23.968Z,30.65
2023-03-17T00:20:51.489Z,28.17
2023-03-17T00:23:21.654Z,31.98
2023-03-17T00:25:49.911Z,31.25
2023-03-17T00:28:21.116Z,35.30
2023-03-17T00:30:49.608Z,37.17
2023-03-17T00:33:17.809Z,41.45
2023-03-17T00:35:46.587Z,34.55
2023-03-17T00:38:18.433Z,32.97
2023-03-17T00:40:48.830Z,30.58
2023-03-17T00:43:16.126Z,35.53
2023-03-17T00:45:44.176Z,33.83
2023-03-17T00:48:18.868Z,31.65
2023-03-17T00:50:48.116Z,23.35
2023-03-17T00:53:18.304Z,25.23
2023-03-17T00:55:46.478Z,24.73
2023-03-17T00:58:32.637Z,25.08
2023-03-17T01:01:01.191Z,24.40
2023-03-17T01:03:28.922Z,28.83
2023-03-17T01:05:59.783Z,26.70
2023-03-17T01:08:30.232Z,25.42
2023-03-17T01:10:58.603Z,22.60
2023-03-17T01:13:26.263Z,24.80
2023-03-17T01:15:56.522Z,20.52
2023-03-17T01:18:24.619Z,30.38
2023-03-17T01:20:53.272Z,23.33
2023-03-17T01:23:22.248Z,27.05
2023-03-17T01:25:50.268Z,29.70
2023-03-17T01:28:19.553Z,27.85
2023-03-17T01:30:47.132Z,27.45
2023-03-17T01:33:14.796Z,22.83
2023-03-17T01:35:43.960Z,22.75
2023-03-17T01:38:11.938Z,27.77
2023-03-17T01:40:46.207Z,30.83
2023-03-17T01:43:13.526Z,21.85
2023-03-17T01:46:14.894Z,22.75
2023-03-17T01:49:04.668Z,31.88
2023-03-17T01:51:44.374Z,22.27
2023-03-17T01:54:17.169Z,27.73
2023-03-17T01:56:47.448Z,30.63
2023-03-17T01:59:25.901Z,28.27
2023-03-17T02:02:01.464Z,30.55
2023-03-17T02:04:29.734Z,28.83
2023-03-17T02:06:58.922Z,33.72
2023-03-17T02:09:28.128Z,24.70
2023-03-17T02:11:56.688Z,26.80
2023-03-17T02:14:24.456Z,29.77
2023-03-17T02:16:51.750Z,25.83
2023-03-17T02:19:19.030Z,24.98
2023-03-17T02:21:50.316Z,19.63
2023-03-17T02:24:36.427Z,27.02
2023-03-17T02:27:34.944Z,24.70
2023-03-17T02:30:04.592Z,25.38
2023-03-17T02:32:36.235Z,28.55
2023-03-17T02:35:03.928Z,25.30
2023-03-17T02:37:31.472Z,22.88
2023-03-17T02:40:01.825Z,26.00
2023-03-17T02:42:30.809Z,26.90
2023-03-17T02:44:59.704Z,21.63
2023-03-17T02:47:27.729Z,23.20
2023-03-17T02:49:55.529Z,24.13
2023-03-17T02:52:22.824Z,29.10
2023-03-17T02:54:50.320Z,21.40
2023-03-17T02:57:17.811Z,24.15
2023-03-17T02:59:45.331Z,23.55
2023-03-17T03:02:12.728Z,22.35
2023-03-17T03:04:40.323Z,22.77
2023-03-17T03:07:07.668Z,22.83
2023-03-17T03:09:35.380Z,22.10
2023-03-17T03:12:03.253Z,25.58
2023-03-17T03:14:30.623Z,23.05
2023-03-17T03:16:58.617Z,22.90
2023-03-17T03:19:26.232Z,21.75
2023-03-17T03:21:53.450Z,27.05
2023-03-17T03:24:20.694Z,26.52
2023-03-17T03:26:48.327Z,21.10
2023-03-17T03:29:16.943Z,25.17
2023-03-17T03:31:44.129Z,22.60
2023-03-17T03:34:11.556Z,20.40
2023-03-17T03:36:38.937Z,21.77
2023-03-17T03:39:06.329Z,20.45
2023-03-17T03:41:33.511Z,20.80
2023-03-17T03:44:01.019Z,19.98
2023-03-17T03:46:28.453Z,18.63
2023-03-17T03:48:55.820Z,28.10
2023-03-17T03:51:22.987Z,24.55
2023-03-17T03:53:50.274Z,26.08
2023-03-17T03:56:17.612Z,26.40
2023-03-17T03:58:44.873Z,23.50
2023-03-17T04:01:15.576Z,26.75
2023-03-17T04:03:42.911Z,22.23
2023-03-17T04:06:10.857Z,24.80
2023-03-17T04:08:38.146Z,25.05
2023-03-17T04:11:05.792Z,21.38
2023-03-17T04:13:33.021Z,19.73
2023-03-17T04:16:01.426Z,20.33
2023-03-17T04:18:28.804Z,22.38
2023-03-17T04:20:56.374Z,22.95
2023-03-17T04:23:23.581Z,24.85
2023-03-17T04:25:53.170Z,20.42
2023-03-17T04:28:20.927Z,26.52
2023-03-17T04:30:48.174Z,28.38
2023-03-17T04:33:15.449Z,24.38
2023-03-17T04:35:42.715Z,24.67
2023-03-17T04:38:12.481Z,24.35
2023-03-17T04:40:39.820Z,25.70
2023-03-17T04:43:07.327Z,31.60
2023-03-17T04:45:34.546Z,34.05
2023-03-17T04:48:01.913Z,31.95
2023-03-17T04:50:29.629Z,29.35
2023-03-17T04:52:56.897Z,32.50
2023-03-17T04:55:24.113Z,36.97
2023-03-17T04:57:51.462Z,30.63
2023-03-17T05:00:19.712Z,22.35
2023-03-17T05:02:48.095Z,25.73
2023-03-17T05:05:15.648Z,24.63
2023-03-17T05:07:44.898Z,21.15
2023-03-17T05:10:12.723Z,30.00
2023-03-17T05:12:39.952Z,28.60
2023-03-17T05:15:07.690Z,29.30
2023-03-17T05:17:34.854Z,28.20
2023-03-17T05:20:02.185Z,36.75
2023-03-17T05:22:29.950Z,36.80
2023-03-17T05:24:57.119Z,33.15
2023-03-17T05:27:24.589Z,28.50
2023-03-17T05:29:52.558Z,23.27
2023-03-17T05:32:19.952Z,34.35
2023-03-17T05:34:47.792Z,30.98
2023-03-17T05:37:15.696Z,31.92
2023-03-17T05:39:43.774Z,23.30
2023-03-17T05:42:11.534Z,31.77
2023-03-17T05:44:38.756Z,28.65
2023-03-17T05:47:06.102Z,27.27
2023-03-17T05:49:33.466Z,28.75
2023-03-17T05:52:00.725Z,30.67
2023-03-17T05:54:27.991Z,31.20
2023-03-17T05:56:55.478Z,26.23
2023-03-17T05:59:23.181Z,24.67
2023-03-17T06:01:50.669Z,27.60
2023-03-17T06:04:18.007Z,27.35
2023-03-17T06:06:45.387Z,26.17
2023-03-17T06:09:12.665Z,25.77
2023-03-17T06:11:39.923Z,29.13
2023-03-17T06:14:07.422Z,29.13
2023-03-17T06:16:34.760Z,29.23
2023-03-17T06:19:02.445Z,31.52
2023-03-17T06:21:29.779Z,27.02
2023-03-17T06:23:57.106Z,22.35
2023-03-17T06:26:24.293Z,29.73
2023-03-17T06:28:51.616Z,25.52
2023-03-17T06:31:18.816Z,21.52
2023-03-17T06:33:46.076Z,34.08
2023-03-17T06:36:13.812Z,20.73
2023-03-17T06:38:41.633Z,18.88
2023-03-17T06:41:09.174Z,18.40
2023-03-17T06:43:36.361Z,25.33
2023-03-17T06:46:03.902Z,24.17
2023-03-17T06:48:31.139Z,19.27
2023-03-17T06:50:58.324Z,21.15
2023-03-17T06:53:25.815Z,17.92
2023-03-17T06:55:53.156Z,26.35
2023-03-17T06:58:20.912Z,21.90
2023-03-17T07:00:49.069Z,22.33
2023-03-17T07:03:17.012Z,20.48
2023-03-17T07:05:44.659Z,20.73
2023-03-17T07:08:12.261Z,19.10
2023-03-17T07:10:43.433Z,19.35
2023-03-17T07:13:10.978Z,21.92
2023-03-17T07:15:42.946Z,21.27
2023-03-17T07:18:11.198Z,21.73
2023-03-17T07:20:38.467Z,24.52
2023-03-17T07:23:06.167Z,20.45
2023-03-17T07:25:36.933Z,22.48
2023-03-17T07:28:04.907Z,17.70
2023-03-17T07:30:32.849Z,18.83
2023-03-17T07:33:00.464Z,20.85
2023-03-17T07:35:29.083Z,20.35
2023-03-17T07:37:57.177Z,21.02
2023-03-17T07:40:24.931Z,18.13
2023-03-17T07:42:52.544Z,16.23
2023-03-17T07:45:19.846Z,21.02
2023-03-17T07:47:47.297Z,17.98
2023-03-17T07:50:15.440Z,14.80
2023-03-17T07:52:43.105Z,18.23
2023-03-17T07:55:13.053Z,14.30
2023-03-17T07:57:41.364Z,15.52
2023-03-17T08:00:09.924Z,15.68
2023-03-17T08:02:41.095Z,19.05
2023-03-17T08:05:09.008Z,19.25
2023-03-17T08:07:37.624Z,19.00
2023-03-17T08:10:07.542Z,21.25
2023-03-17T08:12:35.638Z,17.60
2023-03-17T08:15:03.005Z,18.70
2023-03-17T08:17:30.284Z,19.00
2023-03-17T08:19:57.755Z,19.67
2023-03-17T08:22:25.482Z,17.98
2023-03-17T08:24:52.714Z,19.63
2023-03-17T08:27:21.415Z,16.17
2023-03-17T08:29:48.759Z,19.52
2023-03-17T08:32:16.040Z,19.40
2023-03-17T08:34:44.543Z,16.90
2023-03-17T08:37:12.329Z,22.42
2023-03-17T08:39:40.366Z,20.15
2023-03-17T08:42:08.286Z,19.35
2023-03-17T08:44:35.577Z,17.67
2023-03-17T08:47:03.105Z,18.63
2023-03-17T08:49:34.603Z,20.77
2023-03-17T08:52:03.213Z,15.02
2023-03-17T08:54:30.440Z,18.13
2023-03-17T08:56:58.695Z,20.92
2023-03-17T08:59:25.894Z,20.58
2023-03-17T09:01:53.222Z,20.00
2023-03-17T09:04:20.707Z,18.40
2023-03-17T09:07:02.209Z,14.95
2023-03-17T09:09:31.241Z,20.52
2023-03-17T09:11:58.744Z,23.38
2023-03-17T09:14:26.069Z,21.02
2023-03-17T09:16:56.970Z,17.27
2023-03-17T09:19:24.201Z,17.77
2023-03-17T09:21:52.082Z,19.50
2023-03-17T09:24:20.706Z,19.40
2023-03-17T09:26:47.968Z,20.00
2023-03-17T09:29:15.437Z,18.70
2023-03-17T09:31:43.178Z,16.52
2023-03-17T09:34:11.131Z,16.42
2023-03-17T09:36:38.570Z,18.48
2023-03-17T09:39:06.249Z,18.00
2023-03-17T09:41:42.501Z,17.77
2023-03-17T09:44:46.171Z,17.70
2023-03-17T09:47:48.540Z,18.67
2023-03-17T09:50:38.200Z,22.48
2023-03-17T09:53:12.515Z,20.20
2023-03-17T09:58:09.353Z,11.45
2023-03-17T10:00:36.578Z,18.42
2023-03-17T10:03:04.102Z,17.40
2023-03-17T10:05:37.029Z,12.90
2023-03-17T10:08:32.111Z,15.82
2023-03-17T10:11:24.168Z,12.98
2023-03-17T10:14:02.107Z,17.52
2023-03-17T10:16:35.342Z,13.70
2023-03-17T10:19:25.782Z,18.30
2023-03-17T10:22:17.778Z,17.95
2023-03-17T10:24:50.566Z,18.48
2023-03-17T10:27:18.948Z,15.90
2023-03-17T10:29:48.422Z,14.18
2023-03-17T10:32:16.182Z,12.82
2023-03-17T10:34:44.029Z,12.82
2023-03-17T10:37:18.751Z,12.80
2023-03-17T10:39:54.686Z,14.07
2023-03-17T10:42:27.433Z,15.90
2023-03-17T10:45:01.630Z,12.07
2023-03-17T10:47:50.224Z,13.90
2023-03-17T10:50:22.157Z,10.15
2023-03-17T10:52:59.311Z,10.90
2023-03-17T10:55:32.662Z,8.93
2023-03-17T10:58:05.341Z,8.43
2023-03-17T11:00:36.442Z,10.15
2023-03-17T11:03:24.442Z,13.20
2023-03-17T11:06:16.996Z,11.07
2023-03-17T11:08:53.946Z,9.65
2023-03-17T11:11:35.727Z,9.63
2023-03-17T11:14:04.826Z,6.38
2023-03-17T11:16:41.142Z,5.25
2023-03-17T11:19:15.557Z,5.32
2023-03-17T11:22:00.116Z,6.13
2023-03-17T11:24:33.473Z,10.52
2023-03-17T11:27:18.622Z,9.60
2023-03-17T11:30:01.035Z,11.95
2023-03-17T11:32:56.552Z,10.07
2023-03-17T11:35:46.155Z,9.70
2023-03-17T11:38:28.935Z,7.07
2023-03-17T11:41:09.164Z,7.05
2023-03-17T11:44:21.256Z,7.90
2023-03-17T11:46:52.888Z,6.57
2023-03-17T11:49:27.933Z,13.30
2023-03-17T11:52:27.015Z,6.28
2023-03-17T11:55:17.776Z,6.22
2023-03-17T11:57:56.971Z,7.15
2023-03-17T12:00:50.785Z,9.52
2023-03-17T12:03:28.575Z,7.75
2023-03-17T12:06:01.675Z,11.75
2023-03-17T12:08:45.745Z,7.43
2023-03-17T12:11:17.150Z,7.15
2023-03-17T12:13:49.773Z,8.00
2023-03-17T12:16:50.200Z,6.03
2023-03-17T12:19:34.841Z,8.70
2023-03-17T12:22:15.747Z,10.38
2023-03-17T12:24:53.255Z,7.85
2023-03-17T12:27:30.816Z,9.48
2023-03-17T12:30:05.465Z,8.13
2023-03-17T12:35:19.784Z,7.57
2023-03-17T12:37:48.992Z,5.70
2023-03-17T12:40:28.860Z,8.80
2023-03-17T12:43:28.577Z,5.85
2023-03-17T12:45:58.974Z,5.47
2023-03-17T12:48:47.250Z,6.18
2023-03-17T12:51:37.894Z,5.85
2023-03-17T12:54:12.085Z,10.70
2023-03-17T12:56:45.770Z,6.13
2023-03-17T12:59:20.015Z,8.95
2023-03-17T13:02:00.021Z,9.57
2023-03-17T13:04:35.574Z,5.63
2023-03-17T13:07:15.823Z,7.25
2023-03-17T13:09:55.463Z,7.57
2023-03-17T13:12:44.763Z,9.75
2023-03-17T13:15:35.950Z,8.20
2023-03-17T13:18:15.575Z,11.57
2023-03-17T13:21:01.492Z,8.15
2023-03-17T13:23:47.571Z,7.53
2023-03-17T13:26:21.271Z,6.82
2023-03-17T13:28:51.898Z,5.03
2023-03-17T13:31:31.160Z,4.75
2023-03-17T13:34:17.987Z,7.35
2023-03-17T13:36:54.062Z,8.25
2023-03-17T13:39:43.515Z,4.07
2023-03-17T13:42:18.685Z,6.32
2023-03-17T13:45:01.313Z,6.60
2023-03-17T13:47:43.925Z,4.10
2023-03-17T13:50:22.217Z,6.55
2023-03-17T13:52:53.782Z,4.25
2023-03-17T13:55:24.173Z,4.38
2023-03-17T13:58:08.271Z,5.10
2023-03-17T14:00:43.871Z,7.03
2023-03-17T14:03:38.273Z,5.15
2023-03-17T14:06:08.848Z,3.80
2023-03-17T14:08:38.317Z,4.40
2023-03-17T14:11:22.425Z,4.03
2023-03-17T14:14:03.746Z,3.78
2023-03-17T14:16:35.958Z,7.88
2023-03-17T14:19:18.549Z,3.55
2023-03-17T14:21:46.162Z,5.38
2023-03-17T14:24:33.316Z,3.85
2023-03-17T14:27:08.042Z,24.20
2023-03-17T14:29:36.585Z,24.08
2023-03-17T14:32:13.827Z,11.48
2023-03-17T14:35:12.657Z,4.15
2023-03-17T14:37:39.865Z,5.40
2023-03-17T14:40:27.038Z,3.83
2023-03-17T14:42:54.575Z,4.80
2023-03-17T14:45:27.554Z,5.32
2023-03-17T14:47:55.445Z,4.20
2023-03-17T14:50:31.636Z,4.30
2023-03-17T14:53:02.236Z,4.25
2023-03-17T14:55:48.174Z,4.82
2023-03-17T14:58:46.066Z,4.50
2023-03-17T15:01:34.524Z,5.22
2023-03-17T15:04:13.043Z,3.58
2023-03-17T15:07:01.218Z,5.45
2023-03-17T15:09:34.524Z,4.05
2023-03-17T15:12:23.198Z,5.07
2023-03-17T15:14:56.509Z,6.70
2023-03-17T15:17:33.101Z,4.13
2023-03-17T15:20:04.852Z,4.15
2023-03-17T15:22:42.231Z,4.90
2023-03-17T15:25:37.532Z,5.15
2023-03-17T15:28:12.458Z,6.30
2023-03-17T15:30:47.936Z,7.00
2023-03-17T15:33:32.455Z,6.25
2023-03-17T15:36:02.547Z,6.18
2023-03-17T15:38:30.338Z,5.88
2023-03-17T15:40:57.695Z,4.88
2023-03-17T15:43:24.928Z,4.55
2023-03-17T15:45:58.538Z,7.38
2023-03-17T15:48:27.939Z,7.43
2023-03-17T15:50:56.896Z,9.25
2023-03-17T15:53:24.663Z,31.92
2023-03-17T15:55:52.047Z,12.45
2023-03-17T15:58:19.953Z,55.28
2023-03-17T16:00:51.788Z,7.78
2023-03-17T16:03:32.600Z,11.50
2023-03-17T16:06:01.861Z,8.48
2023-03-17T16:08:29.020Z,7.28
2023-03-17T16:10:57.176Z,7.97
2023-03-17T16:13:25.525Z,6.93
2023-03-17T16:15:58.765Z,5.75
2023-03-17T16:18:35.148Z,6.68
2023-03-17T16:21:04.042Z,8.90
2023-03-17T16:23:37.495Z,29.17
2023-03-17T16:26:14.629Z,58.90
2023-03-17T16:28:45.391Z,32.97
2023-03-17T16:31:17.081Z,25.55
2023-03-17T16:33:44.811Z,14.93
2023-03-17T16:36:17.944Z,11.25
2023-03-17T16:38:45.670Z,37.17
2023-03-17T16:41:21.084Z,49.45
2023-03-17T16:43:55.329Z,20.67
2023-03-17T16:46:22.828Z,15.15
2023-03-17T16:48:51.122Z,19.23
2023-03-17T16:51:18.660Z,21.83
2023-03-17T16:53:46.226Z,23.75
2023-03-17T16:56:16.759Z,22.33
2023-03-17T16:58:44.778Z,43.17
2023-03-17T17:01:15.737Z,59.05
2023-03-17T17:03:43.925Z,50.33
2023-03-17T17:06:12.701Z,44.58
2023-03-17T17:08:40.926Z,39.55
2023-03-17T17:11:08.526Z,34.17
2023-03-17T17:13:37.428Z,26.35
2023-03-17T17:16:05.234Z,14.50
2023-03-17T17:18:32.562Z,13.30
2023-03-17T17:20:59.794Z,8.15
2023-03-17T17:23:28.176Z,13.48
2023-03-17T17:25:56.097Z,12.88
2023-03-17T17:28:24.620Z,21.70
2023-03-17T17:30:52.738Z,17.52
2023-03-17T17:33:21.788Z,17.30
2023-03-17T17:35:50.141Z,14.15
2023-03-17T17:38:28.700Z,14.57
2023-03-17T17:40:58.438Z,16.23
2023-03-17T17:43:26.306Z,15.82
2023-03-17T17:45:56.902Z,15.05
2023-03-17T17:48:26.039Z,18.88
2023-03-17T17:50:55.033Z,15.30
2023-03-17T17:53:22.480Z,21.10
2023-03-17T17:55:50.662Z,33.95
2023-03-17T17:58:21.527Z,40.30
2023-03-17T18:00:49.452Z,26.83
2023-03-17T18:03:16.741Z,24.85
2023-03-17T18:05:44.424Z,24.02
2023-03-17T18:08:14.540Z,28.15
2023-03-17T18:10:41.792Z,27.40
2023-03-17T18:13:09.705Z,23.80
2023-03-17T18:15:37.176Z,25.40
2023-03-17T18:18:05.592Z,15.20
2023-03-17T18:20:33.314Z,15.77
2023-03-17T18:23:01.368Z,14.45
2023-03-17T18:25:29.409Z,19.17
2023-03-17T18:27:57.323Z,28.45
2023-03-17T18:30:27.880Z,37.45
2023-03-17T18:32:58.072Z,39.22
2023-03-17T18:35:27.274Z,26.90
2023-03-17T18:37:57.186Z,21.55
2023-03-17T18:40:26.077Z,40.67
2023-03-17T18:42:53.379Z,36.42
2023-03-17T18:45:20.860Z,27.15
2023-03-17T18:47:47.986Z,34.22
2023-03-17T18:50:16.600Z,27.27
2023-03-17T18:52:44.975Z,31.63
2023-03-17T18:55:13.755Z,34.92
2023-03-17T18:57:44.366Z,27.42
2023-03-17T19:00:13.990Z,18.40
2023-03-17T19:02:41.425Z,32.60
2023-03-17T19:05:09.959Z,18.05
2023-03-17T19:07:40.115Z,21.25
2023-03-17T19:10:12.140Z,22.90
2023-03-17T19:12:41.170Z,22.75
2023-03-17T19:15:09.666Z,30.15
2023-03-17T19:17:37.137Z,51.67
2023-03-17T19:20:05.890Z,40.47
2023-03-17T19:22:34.919Z,53.97
2023-03-17T19:25:04.398Z,47.17
2023-03-17T19:27:31.697Z,34.33
2023-03-17T19:29:59.052Z,25.70
2023-03-17T19:32:26.325Z,37.90
2023-03-17T19:34:53.585Z,35.70
2023-03-17T19:37:21.144Z,27.00
2023-03-17T19:39:48.501Z,39.67
2023-03-17T19:42:16.196Z,55.05
2023-03-17T19:44:44.906Z,45.55
2023-03-17T19:47:14.451Z,62.35
2023-03-17T19:49:42.013Z,61.10
2023-03-17T19:52:10.413Z,41.70
2023-03-17T19:54:38.243Z,81.70
2023-03-17T19:57:05.502Z,98.20
2023-03-17T19:59:32.821Z,82.88
2023-03-17T20:02:00.084Z,79.10
2023-03-17T20:04:27.399Z,85.13
2023-03-17T20:06:55.840Z,84.78
2023-03-17T20:09:26.213Z,97.93
2023-03-17T20:11:54.488Z,97.40
2023-03-17T20:14:21.696Z,110.68
2023-03-17T20:16:49.229Z,119.97
2023-03-17T20:19:17.052Z,176.48
2023-03-17T20:21:44.913Z,133.30
2023-03-17T20:24:14.820Z,128.75
2023-03-17T20:26:43.542Z,102.22
2023-03-17T20:29:14.350Z,72.93
2023-03-17T20:31:42.782Z,59.38
2023-03-17T20:34:10.911Z,75.60
2023-03-17T20:36:42.309Z,51.95
2023-03-17T20:39:13.812Z,62.47
2023-03-17T20:41:42.482Z,64.65
2023-03-17T20:44:09.677Z,83.88
2023-03-17T20:46:36.939Z,65.20
2023-03-17T20:49:05.792Z,60.70
2023-03-17T20:51:34.074Z,63.13
2023-03-17T20:54:11.282Z,109.05
2023-03-17T20:56:39.768Z,90.57
2023-03-17T20:59:10.134Z,83.97
2023-03-17T21:01:38.906Z,63.97
2023-03-17T21:04:09.082Z,60.20
2023-03-17T21:06:38.604Z,58.00
2023-03-17T21:09:06.044Z,56.53
2023-03-17T21:11:33.951Z,55.80
2023-03-17T21:14:03.446Z,60.75
2023-03-17T21:16:31.070Z,56.13
2023-03-17T21:18:58.980Z,54.45
2023-03-17T21:21:27.155Z,67.00
2023-03-17T21:23:55.530Z,77.78
2023-03-17T21:26:23.022Z,79.22
2023-03-17T21:28:50.497Z,77.68
2023-03-17T21:31:17.793Z,64.63
2023-03-17T21:33:45.322Z,80.18
2023-03-17T21:36:12.715Z,86.70
2023-03-17T21:38:40.001Z,82.97
2023-03-17T21:41:21.653Z,82.68
2023-03-17T21:43:49.276Z,97.18
2023-03-17T21:46:16.729Z,96.38
2023-03-17T21:48:44.149Z,91.88
2023-03-17T21:51:11.690Z,93.82
2023-03-17T21:53:39.123Z,91.85
2023-03-17T21:56:06.848Z,83.40
2023-03-17T21:58:34.387Z,90.85
2023-03-17T22:01:01.803Z,87.50
2023-03-17T22:03:29.264Z,87.63
2023-03-17T22:05:56.727Z,92.28
2023-03-17T22:08:23.910Z,93.35
2023-03-17T22:10:51.698Z,90.70
2023-03-17T22:13:19.051Z,83.88
2023-03-17T22:15:46.185Z,82.15
2023-03-17T22:18:14.156Z,94.80
2023-03-17T22:20:41.506Z,101.50
2023-03-17T22:23:08.706Z,99.20
2023-03-17T22:25:36.077Z,96.47
2023-03-17T22:28:03.267Z,83.30
2023-03-17T22:30:30.901Z,83.70
2023-03-17T22:32:58.218Z,129.18
2023-03-17T22:35:25.395Z,199.25
2023-03-17T22:37:52.642Z,156.52
2023-03-17T22:40:19.917Z,156.40
2023-03-17T22:42:47.147Z,101.50
2023-03-17T22:45:15.021Z,87.68
2023-03-17T22:47:42.436Z,83.80
2023-03-17T22:50:10.432Z,76.30
2023-03-17T22:52:38.266Z,78.93
2023-03-17T22:55:06.601Z,80.55
2023-03-17T22:57:34.104Z,83.57
2023-03-17T23:00:01.303Z,71.30
2023-03-17T23:02:34.866Z,73.90
2023-03-17T23:05:20.380Z,72.35
2023-03-17T23:07:50.698Z,71.95
2023-03-17T23:10:24.777Z,72.38
2023-03-17T23:12:52.542Z,71.77
2023-03-17T23:15:20.128Z,64.80
2023-03-17T23:17:47.592Z,65.22
2023-03-17T23:20:15.422Z,71.55
2023-03-17T23:22:42.803Z,70.72
2023-03-17T23:25:10.688Z,72.20
2023-03-17T23:27:37.970Z,68.55
2023-03-17T23:30:05.990Z,65.05
2023-03-17T23:32:34.330Z,71.90
2023-03-17T23:35:02.709Z,57.25
2023-03-17T23:37:30.922Z,65.38
2023-03-17T23:39:58.194Z,62.53
2023-03-17T23:42:25.439Z,68.55
2023-03-17T23:44:57.331Z,59.92
2023-03-17T23:47:24.654Z,67.50
2023-03-17T23:49:53.277Z,63.45
2023-03-17T23:52:21.990Z,67.18
2023-03-17T23:54:49.303Z,62.75
2023-03-17T23:57:17.287Z,57.28
2023-03-17T23:59:44.527Z,59.67
